Fruto, California
Current Conditions -  °F | °C
As of 12:35 AM on Thursday 23 Oct 2014 (Local Time) from KCIC Reporting Station
Scattered Clouds Scattered Clouds  
Wind Chill: 68°   Ceiling: Unl
Heat Index: 68°   Visibility: 10mi
Dew Point: 39°   Wind: 5mph
Humidity: 35%   Direction: 120°ESE
Pressure: 30.01"   Gusts: NA
Location:  39.5041°N, 122.217°W
Report Text: KCIC 230735Z AUTO 12004KT 10SM SCT110 20/04 A3001 RMK AO1
Loading
Personal Weather Stations






























Interactive Weather Map
Tropical Storm Tracking
New forecast layout! Learn more

10-Day Weather Forecast

Advertisements
Track Severe Weather on mobile